Flight Track Log - Related Links

Times and Time Zones

All times are in EDT time to prevent confusion due to time zone crossing. See the SKW5631 flight status page for this flight to view local times or setup timezone preferences in your user account.

Time Position Orientation Groundspeed Altitude Reporting Facility
EDT Latitude Longitude Course Direction KTS MPH feet Rate Location/Type
Sat 10:33:00 PM 36.9115 -121.5012 135° Southeast  Level Estimated
Sat 10:34:00 PM 36.8226 -121.3931 136° Southeast  Level Estimated
Sat 10:35:00 PM 36.7336 -121.2852 136° Southeast  Level Estimated
Sat 10:36:00 PM 36.6445 -121.1776 136° Southeast  Level Estimated
Sat 10:37:00 PM 36.5553 -121.0702 136° Southeast  Level Estimated
Sat 10:38:00 PM 36.4660 -120.9631 136° Southeast  Level Estimated
Sat 10:39:00 PM 36.3767 -120.8562 136° Southeast  Level Estimated
Sat 10:40:00 PM 36.2872 -120.7496 136° Southeast  Level Estimated
Sat 10:41:00 PM 36.1976 -120.6432 136° Southeast  Level Estimated
Sat 10:42:00 PM 36.1079 -120.5371 136° Southeast  Level Estimated
Sat 10:43:00 PM 36.0182 -120.4312 136° Southeast  Level Estimated
Sat 10:44:00 PM 35.9283 -120.3256 136° Southeast  Level Estimated
Sat 10:45:00 PM 35.8384 -120.2202 136° Southeast  Level Estimated
Sat 10:46:00 PM 35.7484 -120.1150 137° Southeast  Level Estimated
Sat 10:47:00 PM 35.6582 -120.0101 137° Southeast  Level Estimated
Sat 10:48:00 PM 35.5680 -119.9054 137° Southeast  Level Estimated
Sat 10:49:00 PM 35.4777 -119.8009 137° Southeast  Level Estimated
Sat 10:50:00 PM 35.3873 -119.6967 137° Southeast  Level Estimated
Sat 10:51:00 PM 35.2968 -119.5927 137° Southeast  Level Estimated
Sat 10:52:00 PM 35.2062 -119.4889 137° Southeast  Level Estimated
Sat 10:53:00 PM 35.1156 -119.3854 137° Southeast  Level Estimated
Sat 10:54:00 PM 35.0248 -119.2821 137° Southeast  Level Estimated
Sat 10:55:00 PM 34.9340 -119.1790 137° Southeast  Level Estimated
Sat 10:56:00 PM 34.8431 -119.0762 137° Southeast  Level Estimated
Sat 10:57:00 PM 34.7520 -118.9736 137° Southeast  Level Estimated
Sat 10:58:00 PM 34.6609 -118.8712 137° Southeast  Level Estimated
Sat 10:59:00 PM 34.5698 -118.7690 137° Southeast  Level Estimated
Sat 11:00:00 PM 34.4785 -118.6671 137° Southeast  Level Estimated
Sat 11:01:00 PM 34.3871 -118.5653 137° Southeast  Level Estimated
Sat 11:02:00 PM 34.2957 -118.4638 137° Southeast  Level Estimated
Sat 11:03:00 PM 34.2042 -118.3626 138° Southeast  Level Estimated
Sat 11:04:00 PM 34.2007 -118.3587 138° Southeast  Level Estimated
Sat 11:05:00 PM 34.2007 -118.3587 140° Southeast  Level Estimated
Sat 11:06:00 PM 34.2007 -118.3587 140° Southeast  Level Estimated
Sat 11:07:00 PM 34.2007 -118.3587 140° Southeast  Level Estimated
Sat 11:08:00 PM 34.2007 -118.3587 140° Southeast  Level Estimated
Sat 11:09:00 PM 34.2007 -118.3587 140° Southeast  Level Estimated
Sat 11:10:00 PM 34.2007 -118.3587 140° Southeast  Level Estimated
Sat 11:11:00 PM 34.2007 -118.3587 140° Southeast  Level Estimated
Sat 11:12:00 PM 34.2007 -118.3587 140° Southeast  Level Estimated
Sat 11:13:00 PM 34.2007 -118.3587 140° Southeast  Level Estimated
Sat 11:14:00 PM 34.2007 -118.3587 140° Southeast  Level Estimated
Sat 11:15:00 PM 34.2007 -118.3587 140° Southeast  Level Estimated
Sat 11:16:00 PM 34.2007 -118.3587 140° Southeast  Level Estimated
Sat 11:17:00 PM 34.2007 -118.3587 140° Southeast  Level Estimated
Sat 11:18:00 PM 34.2007 -118.3587 140° Southeast  Level Estimated
Sat 11:19:00 PM 34.2007 -118.3587 140° Southeast  Level Estimated

Login

Don't have an account? Register now (free) for customized features, flight alerts, and more!